createdAt,value
2019-03-24T00:01:59.064Z,46.08
2019-03-24T00:04:25.566Z,44.63
2019-03-24T00:06:51.757Z,44.85
2019-03-24T00:09:17.931Z,44.80
2019-03-24T00:11:44.187Z,45.85
2019-03-24T00:14:10.277Z,44.75
2019-03-24T00:16:36.557Z,45.67
2019-03-24T00:19:03.502Z,48.42
2019-03-24T00:21:30.113Z,46.28
2019-03-24T00:23:56.317Z,45.23
2019-03-24T00:26:23.516Z,46.88
2019-03-24T00:28:49.863Z,47.10
2019-03-24T00:31:15.958Z,48.63
2019-03-24T00:33:42.202Z,48.70
2019-03-24T00:36:08.293Z,47.90
2019-03-24T00:38:34.521Z,48.65
2019-03-24T00:41:00.638Z,47.05
2019-03-24T00:43:28.001Z,49.33
2019-03-24T00:45:54.110Z,47.78
2019-03-24T00:48:20.568Z,47.27
2019-03-24T00:50:46.721Z,47.83
2019-03-24T00:53:12.960Z,48.45
2019-03-24T00:55:39.078Z,49.40
2019-03-24T00:58:05.489Z,47.48
2019-03-24T01:00:43.685Z,47.53
2019-03-24T01:03:09.926Z,47.40
2019-03-24T01:05:36.117Z,46.77
2019-03-24T01:08:02.434Z,48.05
2019-03-24T01:10:28.564Z,47.35
2019-03-24T01:12:55.088Z,47.83
2019-03-24T01:15:21.216Z,46.80
2019-03-24T01:17:47.453Z,46.50
2019-03-24T01:20:13.763Z,44.93
2019-03-24T01:22:39.960Z,45.95
2019-03-24T01:25:06.436Z,48.23
2019-03-24T01:27:32.728Z,44.95
2019-03-24T01:29:59.005Z,46.13
2019-03-24T01:32:25.379Z,46.13
2019-03-24T01:34:51.530Z,46.25
2019-03-24T01:37:17.859Z,47.20
2019-03-24T01:39:44.062Z,43.80
2019-03-24T01:42:10.332Z,45.12
2019-03-24T01:44:36.491Z,47.03
2019-03-24T01:47:02.968Z,46.60
2019-03-24T01:49:29.420Z,44.13
2019-03-24T01:51:55.587Z,44.35
2019-03-24T01:54:21.969Z,44.75
2019-03-24T01:56:48.120Z,45.70
2019-03-24T01:59:15.312Z,46.13
2019-03-24T02:01:41.489Z,46.00
2019-03-24T02:04:07.740Z,45.40
2019-03-24T02:06:34.957Z,46.53
2019-03-24T02:09:01.104Z,44.60
2019-03-24T02:11:27.475Z,44.50
2019-03-24T02:13:53.628Z,46.55
2019-03-24T02:16:19.797Z,47.05
2019-03-24T02:18:45.974Z,47.17
2019-03-24T02:21:12.361Z,46.42
2019-03-24T02:23:38.586Z,44.53
2019-03-24T02:26:04.697Z,44.93
2019-03-24T02:28:30.951Z,43.02
2019-03-24T02:30:57.264Z,45.30
2019-03-24T02:33:23.578Z,43.75
2019-03-24T02:35:49.678Z,45.83
2019-03-24T02:38:15.891Z,46.58
2019-03-24T02:40:42.003Z,46.37
2019-03-24T02:43:08.189Z,46.30
2019-03-24T02:45:34.412Z,44.60
2019-03-24T02:48:00.589Z,44.03
2019-03-24T02:50:26.739Z,45.30
2019-03-24T02:52:53.150Z,45.00
2019-03-24T02:55:19.259Z,44.25
2019-03-24T02:57:45.456Z,44.13
2019-03-24T03:00:11.914Z,45.38
2019-03-24T03:02:38.183Z,42.65
2019-03-24T03:05:06.536Z,43.90
2019-03-24T03:07:32.853Z,43.68
2019-03-24T03:09:58.968Z,43.80
2019-03-24T03:12:25.286Z,43.13
2019-03-24T03:14:51.508Z,41.65
2019-03-24T03:17:18.732Z,42.98
2019-03-24T03:19:44.857Z,40.70
2019-03-24T03:22:11.072Z,44.18
2019-03-24T03:24:37.180Z,42.93
2019-03-24T03:27:03.705Z,43.08
2019-03-24T03:29:29.886Z,41.80
2019-03-24T03:31:56.099Z,41.73
2019-03-24T03:34:22.224Z,41.42
2019-03-24T03:36:48.445Z,41.70
2019-03-24T03:39:14.622Z,42.43
2019-03-24T03:41:41.027Z,42.20
2019-03-24T03:44:07.361Z,42.35
2019-03-24T03:46:33.634Z,43.25
2019-03-24T03:48:59.779Z,43.63
2019-03-24T03:51:26.051Z,41.37
2019-03-24T03:53:52.332Z,41.53
2019-03-24T03:56:18.584Z,41.23
2019-03-24T03:58:44.860Z,43.30
2019-03-24T04:01:11.227Z,44.05
2019-03-24T04:03:37.506Z,42.23
2019-03-24T04:06:03.946Z,41.75
2019-03-24T04:08:30.210Z,41.83
2019-03-24T04:10:56.453Z,42.55
2019-03-24T04:13:22.756Z,40.85
2019-03-24T04:15:49.209Z,40.03
2019-03-24T04:18:15.495Z,42.50
2019-03-24T04:20:41.853Z,40.98
2019-03-24T04:23:08.047Z,42.78
2019-03-24T04:25:34.205Z,40.50
2019-03-24T04:28:01.531Z,39.92
2019-03-24T04:30:27.757Z,42.70
2019-03-24T04:32:53.982Z,41.45
2019-03-24T04:35:20.145Z,41.00
2019-03-24T04:37:46.411Z,42.13
2019-03-24T04:40:12.624Z,44.58
2019-03-24T04:42:38.846Z,45.15
2019-03-24T04:45:05.511Z,44.42
2019-03-24T04:47:31.794Z,43.55
2019-03-24T04:49:58.003Z,45.40
2019-03-24T04:52:24.234Z,44.40
2019-03-24T04:54:50.411Z,43.92
2019-03-24T04:57:16.602Z,41.95
2019-03-24T04:59:42.882Z,42.80
2019-03-24T05:02:09.103Z,44.77
2019-03-24T05:04:35.290Z,45.30
2019-03-24T05:07:01.945Z,46.10
2019-03-24T05:09:28.782Z,47.67
2019-03-24T05:11:55.053Z,46.02
2019-03-24T05:14:21.224Z,45.78
2019-03-24T05:16:47.416Z,45.90
2019-03-24T05:19:13.533Z,44.55
2019-03-24T05:21:39.754Z,42.90
2019-03-24T05:24:05.991Z,45.95
2019-03-24T05:26:32.210Z,45.60
2019-03-24T05:28:58.311Z,45.65
2019-03-24T05:31:24.559Z,46.13
2019-03-24T05:33:50.680Z,48.35
2019-03-24T05:36:16.892Z,45.38
2019-03-24T05:38:43.115Z,46.08
2019-03-24T05:41:09.327Z,45.03
2019-03-24T05:43:35.425Z,44.38
2019-03-24T05:46:01.657Z,44.23
2019-03-24T05:48:27.762Z,43.38
2019-03-24T05:50:53.973Z,44.58
2019-03-24T05:53:20.149Z,42.80
2019-03-24T05:55:46.374Z,45.12
2019-03-24T05:58:12.540Z,44.03
2019-03-24T06:00:38.717Z,44.30
2019-03-24T06:03:04.921Z,41.02
2019-03-24T06:05:31.187Z,43.83
2019-03-24T06:07:57.469Z,42.85
2019-03-24T06:10:23.696Z,44.27
2019-03-24T06:12:49.810Z,43.68
2019-03-24T06:15:16.025Z,44.80
2019-03-24T06:17:47.862Z,46.05
2019-03-24T06:20:10.441Z,45.10
2019-03-24T06:22:36.540Z,44.33
2019-03-24T06:25:04.974Z,46.55
2019-03-24T06:27:31.136Z,41.10
2019-03-24T06:29:57.403Z,42.93
2019-03-24T06:32:23.632Z,42.48
2019-03-24T06:34:49.808Z,42.60
2019-03-24T06:37:16.074Z,40.88
2019-03-24T06:39:42.355Z,41.40
2019-03-24T06:42:08.595Z,41.50
2019-03-24T06:44:34.765Z,40.63
2019-03-24T06:47:00.991Z,42.60
2019-03-24T06:49:27.109Z,40.63
2019-03-24T06:51:53.491Z,43.85
2019-03-24T06:54:19.671Z,45.83
2019-03-24T06:56:45.893Z,44.95
2019-03-24T06:59:12.057Z,45.80
2019-03-24T07:01:38.349Z,45.00
2019-03-24T07:04:04.686Z,42.90
2019-03-24T07:06:30.938Z,41.98
2019-03-24T07:08:57.260Z,42.25
2019-03-24T07:11:23.361Z,42.65
2019-03-24T07:13:49.567Z,39.55
2019-03-24T07:16:15.785Z,43.00
2019-03-24T07:18:41.993Z,40.80
2019-03-24T07:21:08.216Z,41.68
2019-03-24T07:23:34.424Z,41.15
2019-03-24T07:26:00.815Z,42.53
2019-03-24T07:28:27.032Z,39.55
2019-03-24T07:30:53.363Z,39.70
2019-03-24T07:33:19.879Z,35.63
2019-03-24T07:35:46.195Z,35.38
2019-03-24T07:38:12.305Z,34.88
2019-03-24T07:40:38.510Z,34.90
2019-03-24T07:43:04.621Z,34.50
2019-03-24T07:45:31.042Z,34.73
2019-03-24T07:47:57.384Z,32.90
2019-03-24T07:50:23.652Z,34.40
2019-03-24T07:52:50.022Z,33.48
2019-03-24T07:55:16.408Z,33.88
2019-03-24T07:57:42.792Z,33.28
2019-03-24T08:00:10.641Z,33.18
2019-03-24T08:02:36.825Z,34.08
2019-03-24T08:05:04.509Z,33.63
2019-03-24T08:07:30.808Z,33.50
2019-03-24T08:09:57.174Z,32.73
2019-03-24T08:12:23.436Z,31.02
2019-03-24T08:14:49.717Z,31.65
2019-03-24T08:17:15.990Z,31.60
2019-03-24T08:19:42.115Z,31.33
2019-03-24T08:22:08.333Z,32.30
2019-03-24T08:24:34.570Z,31.65
2019-03-24T08:27:00.800Z,30.68
2019-03-24T08:29:26.909Z,29.27
2019-03-24T08:31:53.127Z,30.65
2019-03-24T08:34:19.282Z,30.55
2019-03-24T08:36:45.531Z,30.77
2019-03-24T08:39:11.878Z,29.05
2019-03-24T08:41:38.879Z,28.92
2019-03-24T08:44:05.218Z,27.05
2019-03-24T08:46:31.345Z,28.52
2019-03-24T08:48:57.547Z,30.37
2019-03-24T08:51:23.712Z,29.92
2019-03-24T08:53:49.962Z,28.92
2019-03-24T08:56:16.295Z,27.93
2019-03-24T08:58:42.406Z,29.20
2019-03-24T09:01:08.606Z,27.37
2019-03-24T09:03:34.764Z,27.75
2019-03-24T09:06:01.175Z,27.40
2019-03-24T09:08:27.389Z,25.97
2019-03-24T09:10:53.690Z,25.55
2019-03-24T09:13:19.841Z,26.45
2019-03-24T09:15:46.099Z,31.50
2019-03-24T09:18:12.377Z,28.45
2019-03-24T09:20:41.872Z,29.85
2019-03-24T09:23:06.600Z,27.50
2019-03-24T09:25:32.875Z,26.93
2019-03-24T09:27:59.098Z,25.45
2019-03-24T09:30:27.269Z,24.43
2019-03-24T09:32:55.116Z,26.10
2019-03-24T09:35:21.867Z,24.82
2019-03-24T09:37:48.023Z,23.83
2019-03-24T09:40:18.732Z,24.72
2019-03-24T09:42:45.035Z,24.57
2019-03-24T09:45:11.361Z,23.83
2019-03-24T09:47:37.643Z,23.67
2019-03-24T09:50:04.736Z,23.00
2019-03-24T09:52:30.995Z,24.55
2019-03-24T09:54:57.226Z,23.62
2019-03-24T09:57:23.398Z,28.32
2019-03-24T09:59:49.614Z,32.13
2019-03-24T10:02:15.794Z,33.48
2019-03-24T10:04:42.066Z,32.33
2019-03-24T10:07:08.356Z,32.95
2019-03-24T10:09:34.570Z,32.73
2019-03-24T10:12:00.674Z,34.65
2019-03-24T10:14:26.895Z,33.65
2019-03-24T10:16:53.005Z,30.50
2019-03-24T10:19:19.219Z,31.60
2019-03-24T10:21:45.379Z,32.08
2019-03-24T10:24:11.769Z,32.95
2019-03-24T10:26:37.948Z,31.42
2019-03-24T10:29:04.126Z,31.30
2019-03-24T10:31:30.406Z,32.45
2019-03-24T10:33:56.587Z,32.53
2019-03-24T10:36:22.813Z,32.73
2019-03-24T10:38:48.960Z,33.33
2019-03-24T10:41:15.196Z,33.70
2019-03-24T10:43:41.350Z,32.65
2019-03-24T10:46:07.582Z,32.65
2019-03-24T10:48:34.066Z,33.30
2019-03-24T10:51:00.401Z,31.45
2019-03-24T10:53:26.500Z,31.23
2019-03-24T10:55:52.808Z,31.55
2019-03-24T10:58:18.930Z,30.80
2019-03-24T11:00:45.414Z,32.38
2019-03-24T11:03:11.835Z,32.33
2019-03-24T11:05:39.056Z,33.80
2019-03-24T11:08:05.446Z,37.88
2019-03-24T11:10:31.814Z,35.00
2019-03-24T11:12:57.953Z,36.38
2019-03-24T11:15:24.139Z,35.60
2019-03-24T11:17:50.278Z,35.33
2019-03-24T11:20:16.580Z,33.18
2019-03-24T11:22:42.743Z,36.08
2019-03-24T11:25:09.521Z,36.85
2019-03-24T11:27:36.085Z,37.88
2019-03-24T11:30:03.543Z,36.33
2019-03-24T11:32:30.115Z,37.30
2019-03-24T11:34:56.340Z,37.00
2019-03-24T11:37:22.467Z,35.88
2019-03-24T11:39:48.686Z,32.95
2019-03-24T11:42:14.801Z,32.70
2019-03-24T11:44:41.080Z,33.28
2019-03-24T11:47:07.294Z,35.20
2019-03-24T11:49:33.464Z,33.90
2019-03-24T11:51:59.677Z,33.50
2019-03-24T11:54:25.849Z,33.45
2019-03-24T11:56:52.058Z,34.75
2019-03-24T11:59:18.181Z,34.73
2019-03-24T12:01:44.519Z,33.67
2019-03-24T12:04:10.806Z,33.08
2019-03-24T12:06:37.098Z,33.48
2019-03-24T12:09:04.963Z,33.25
2019-03-24T12:11:31.426Z,33.55
2019-03-24T12:13:57.705Z,35.73
2019-03-24T12:16:24.078Z,34.60
2019-03-24T12:18:50.394Z,35.20
2019-03-24T12:21:16.740Z,36.58
2019-03-24T12:23:42.967Z,33.30
2019-03-24T12:26:09.199Z,35.78
2019-03-24T12:28:35.387Z,33.23
2019-03-24T12:31:01.735Z,35.03
2019-03-24T12:33:27.885Z,32.10
2019-03-24T12:35:54.052Z,34.08
2019-03-24T12:38:20.242Z,33.25
2019-03-24T12:40:47.205Z,33.60
2019-03-24T12:43:19.537Z,32.93
2019-03-24T12:45:42.155Z,32.23
2019-03-24T12:48:08.518Z,32.40
2019-03-24T12:50:35.850Z,32.58
2019-03-24T12:53:02.206Z,42.55
2019-03-24T12:55:28.340Z,35.70
2019-03-24T12:57:54.650Z,31.57
2019-03-24T13:00:36.044Z,32.93
2019-03-24T13:03:02.845Z,30.85
2019-03-24T13:05:29.068Z,33.75
2019-03-24T13:07:58.804Z,31.82
2019-03-24T13:10:24.996Z,31.57
2019-03-24T13:12:51.113Z,31.12
2019-03-24T13:15:17.323Z,31.02
2019-03-24T13:17:43.448Z,32.10
2019-03-24T13:20:19.777Z,32.25
2019-03-24T13:22:38.202Z,31.45
2019-03-24T13:25:05.530Z,31.33
2019-03-24T13:27:31.644Z,30.77
2019-03-24T13:29:57.865Z,29.95
2019-03-24T13:32:23.977Z,29.57
2019-03-24T13:34:50.179Z,30.35
2019-03-24T13:37:16.495Z,29.90
2019-03-24T13:39:42.693Z,28.83
2019-03-24T13:42:08.972Z,29.50
2019-03-24T13:44:35.224Z,26.65
2019-03-24T13:47:01.498Z,25.37
2019-03-24T13:49:27.705Z,27.60
2019-03-24T13:51:53.837Z,28.32
2019-03-24T13:54:20.147Z,24.47
2019-03-24T13:56:46.246Z,23.85
2019-03-24T13:59:12.505Z,26.97
2019-03-24T14:01:38.771Z,26.48
2019-03-24T14:04:04.974Z,25.23
2019-03-24T14:06:31.095Z,23.57
2019-03-24T14:08:58.314Z,22.62
2019-03-24T14:11:24.525Z,23.02
2019-03-24T14:13:50.736Z,23.30
2019-03-24T14:16:17.063Z,22.15
2019-03-24T14:18:43.428Z,22.62
2019-03-24T14:21:09.812Z,24.63
2019-03-24T14:23:36.176Z,29.42
2019-03-24T14:26:02.705Z,23.52
2019-03-24T14:28:28.911Z,22.62
2019-03-24T14:30:55.231Z,24.50
2019-03-24T14:33:21.526Z,23.38
2019-03-24T14:35:47.731Z,22.95
2019-03-24T14:38:13.844Z,22.62
2019-03-24T14:40:40.195Z,22.45
2019-03-24T14:43:06.623Z,24.85
2019-03-24T14:45:32.952Z,22.60
2019-03-24T14:48:00.467Z,24.12
2019-03-24T14:50:26.677Z,21.70
2019-03-24T14:52:52.825Z,21.97
2019-03-24T14:55:19.057Z,20.35
2019-03-24T14:57:45.176Z,21.40
2019-03-24T15:00:11.826Z,20.80
2019-03-24T15:02:40.767Z,20.57
2019-03-24T15:05:06.772Z,19.85
2019-03-24T15:07:33.041Z,18.90
2019-03-24T15:09:59.214Z,19.27
2019-03-24T15:12:25.352Z,19.40
2019-03-24T15:14:51.671Z,18.15
2019-03-24T15:17:17.838Z,18.52
2019-03-24T15:19:44.024Z,17.87
2019-03-24T15:22:10.223Z,18.23
2019-03-24T15:24:36.467Z,17.27
2019-03-24T15:27:03.894Z,17.52
2019-03-24T15:29:31.884Z,17.42
2019-03-24T15:31:58.028Z,17.23
2019-03-24T15:34:24.424Z,17.48
2019-03-24T15:36:51.455Z,17.30
2019-03-24T15:39:18.654Z,18.23
2019-03-24T15:41:45.064Z,17.48
2019-03-24T15:44:11.347Z,17.48
2019-03-24T15:46:37.586Z,17.25
2019-03-24T15:49:03.824Z,15.70
2019-03-24T15:51:30.169Z,15.50
2019-03-24T15:53:56.659Z,15.53
2019-03-24T15:56:23.213Z,14.98
2019-03-24T15:58:49.444Z,15.40
2019-03-24T16:01:15.709Z,16.27
2019-03-24T16:03:41.982Z,19.45
2019-03-24T16:06:08.309Z,16.02
2019-03-24T16:08:34.444Z,14.45
2019-03-24T16:11:00.732Z,15.25
2019-03-24T16:13:27.115Z,14.68
2019-03-24T16:15:54.586Z,20.68
2019-03-24T16:18:20.890Z,19.48
2019-03-24T16:20:47.194Z,24.25
2019-03-24T16:23:13.596Z,21.75
2019-03-24T16:25:39.886Z,18.57
2019-03-24T16:28:06.314Z,17.15
2019-03-24T16:30:32.439Z,18.75
2019-03-24T16:32:58.747Z,17.95
2019-03-24T16:35:25.093Z,14.63
2019-03-24T16:37:51.358Z,17.05
2019-03-24T16:40:17.470Z,17.37
2019-03-24T16:42:43.766Z,19.60
2019-03-24T16:45:10.158Z,21.90
2019-03-24T16:47:36.390Z,19.95
2019-03-24T16:50:04.902Z,18.50
2019-03-24T16:52:31.146Z,18.77
2019-03-24T16:54:57.339Z,16.27
2019-03-24T16:57:24.742Z,17.65
2019-03-24T16:59:50.915Z,16.42
2019-03-24T17:02:17.301Z,16.45
2019-03-24T17:04:43.484Z,17.60
2019-03-24T17:07:09.852Z,19.42
2019-03-24T17:09:36.032Z,18.23
2019-03-24T17:12:04.756Z,16.50
2019-03-24T17:14:31.040Z,16.27
2019-03-24T17:16:58.175Z,16.40
2019-03-24T17:19:24.432Z,16.17
2019-03-24T17:21:50.706Z,17.48
2019-03-24T17:24:16.952Z,16.12
2019-03-24T17:26:43.299Z,16.45
2019-03-24T17:29:09.569Z,15.93
2019-03-24T17:31:38.190Z,17.05
2019-03-24T17:34:04.562Z,17.80
2019-03-24T17:36:30.831Z,17.25
2019-03-24T17:38:57.052Z,16.37
2019-03-24T17:41:23.362Z,18.45
2019-03-24T17:43:49.629Z,20.65
2019-03-24T17:46:16.323Z,20.00
2019-03-24T17:48:42.534Z,21.10
2019-03-24T17:51:08.841Z,20.72
2019-03-24T17:53:35.524Z,21.33
2019-03-24T17:56:02.468Z,21.48
2019-03-24T17:58:28.721Z,22.48
2019-03-24T18:00:56.690Z,23.47
2019-03-24T18:03:22.853Z,23.18
2019-03-24T18:05:50.120Z,20.97
2019-03-24T18:08:16.271Z,23.25
2019-03-24T18:10:42.503Z,21.80
2019-03-24T18:13:08.662Z,22.13
2019-03-24T18:15:35.097Z,22.02
2019-03-24T18:18:01.255Z,23.47
2019-03-24T18:20:31.372Z,22.87
2019-03-24T18:22:57.579Z,24.77
2019-03-24T18:25:23.981Z,23.83
2019-03-24T18:27:50.150Z,24.50
2019-03-24T18:30:16.763Z,24.52
2019-03-24T18:32:43.202Z,25.00
2019-03-24T18:35:09.959Z,24.15
2019-03-24T18:37:36.408Z,26.00
2019-03-24T18:40:05.572Z,24.10
2019-03-24T18:42:31.694Z,24.70
2019-03-24T18:44:58.060Z,24.10
2019-03-24T18:47:24.238Z,24.67
2019-03-24T18:49:50.533Z,26.48
2019-03-24T18:52:22.649Z,25.15
2019-03-24T18:54:44.831Z,24.60
2019-03-24T18:57:11.157Z,25.23
2019-03-24T18:59:37.416Z,24.95
2019-03-24T19:02:03.824Z,25.77
2019-03-24T19:04:30.038Z,27.07
2019-03-24T19:06:56.600Z,26.07
2019-03-24T19:09:22.873Z,27.32
2019-03-24T19:11:49.141Z,25.92
2019-03-24T19:14:17.056Z,25.08
2019-03-24T19:16:43.179Z,26.45
2019-03-24T19:19:09.505Z,27.00
2019-03-24T19:21:35.919Z,24.98
2019-03-24T19:24:02.226Z,28.05
2019-03-24T19:26:28.431Z,25.68
2019-03-24T19:28:54.636Z,28.20
2019-03-24T19:31:20.882Z,27.07
2019-03-24T19:33:47.102Z,30.10
2019-03-24T19:36:13.420Z,28.87
2019-03-24T19:38:40.517Z,27.10
2019-03-24T19:41:06.772Z,30.10
2019-03-24T19:43:33.047Z,28.60
2019-03-24T19:45:59.309Z,29.48
2019-03-24T19:48:26.519Z,32.03
2019-03-24T19:50:52.706Z,32.30
2019-03-24T19:53:18.982Z,32.67
2019-03-24T19:55:45.315Z,30.23
2019-03-24T19:58:11.475Z,31.57
2019-03-24T20:00:37.681Z,31.70
2019-03-24T20:03:04.097Z,30.77
2019-03-24T20:05:30.309Z,32.83
2019-03-24T20:07:56.662Z,33.75
2019-03-24T20:10:22.976Z,36.73
2019-03-24T20:12:49.145Z,34.80
2019-03-24T20:15:15.690Z,32.67
2019-03-24T20:17:42.017Z,34.67
2019-03-24T20:20:08.813Z,37.67
2019-03-24T20:22:35.030Z,35.20
2019-03-24T20:25:01.127Z,34.43
2019-03-24T20:27:27.529Z,34.53
2019-03-24T20:29:53.651Z,37.93
2019-03-24T20:32:19.857Z,37.75
2019-03-24T20:34:46.160Z,39.18
2019-03-24T20:37:12.375Z,40.88
2019-03-24T20:39:38.518Z,40.78
2019-03-24T20:42:04.904Z,39.70
2019-03-24T20:44:31.175Z,41.50
2019-03-24T20:46:57.443Z,43.63
2019-03-24T20:49:23.711Z,45.98
2019-03-24T20:51:49.941Z,45.45
2019-03-24T20:54:16.108Z,45.12
2019-03-24T20:56:42.351Z,43.68
2019-03-24T20:59:08.646Z,42.20
2019-03-24T21:01:35.224Z,47.27
2019-03-24T21:04:01.463Z,47.13
2019-03-24T21:06:27.674Z,47.90
2019-03-24T21:08:53.910Z,45.25
2019-03-24T21:11:20.498Z,44.75
2019-03-24T21:13:46.795Z,46.85
2019-03-24T21:16:13.158Z,45.50
2019-03-24T21:18:39.486Z,44.13
2019-03-24T21:21:05.673Z,45.92
2019-03-24T21:23:31.915Z,46.55
2019-03-24T21:25:58.047Z,45.85
2019-03-24T21:28:25.482Z,45.28
2019-03-24T21:30:51.646Z,47.27
2019-03-24T21:33:17.959Z,47.55
2019-03-24T21:35:44.350Z,47.38
2019-03-24T21:38:10.512Z,45.75
2019-03-24T21:40:36.809Z,45.58
2019-03-24T21:43:03.415Z,45.28
2019-03-24T21:45:29.805Z,44.23
2019-03-24T21:47:56.512Z,46.77
2019-03-24T21:50:22.971Z,44.08
2019-03-24T21:52:49.344Z,44.65
2019-03-24T21:55:15.431Z,46.00
2019-03-24T21:57:41.746Z,44.98
2019-03-24T22:00:08.751Z,44.10
2019-03-24T22:02:35.198Z,45.98
2019-03-24T22:05:01.618Z,43.95
2019-03-24T22:07:28.938Z,44.80
2019-03-24T22:09:55.090Z,40.28
2019-03-24T22:12:21.266Z,41.95
2019-03-24T22:14:47.528Z,40.55
2019-03-24T22:17:13.753Z,37.42
2019-03-24T22:19:39.878Z,36.63
2019-03-24T22:22:06.182Z,35.10
2019-03-24T22:24:32.428Z,35.70
2019-03-24T22:26:58.744Z,37.35
2019-03-24T22:29:24.959Z,38.35
2019-03-24T22:31:51.080Z,39.27
2019-03-24T22:34:17.348Z,35.25
2019-03-24T22:36:43.503Z,35.28
2019-03-24T22:39:09.676Z,36.15
2019-03-24T22:41:35.960Z,34.70
2019-03-24T22:44:02.813Z,35.20
2019-03-24T22:46:28.977Z,35.90
2019-03-24T22:48:55.239Z,36.03
2019-03-24T22:51:21.600Z,34.13
2019-03-24T22:53:47.881Z,33.48
2019-03-24T22:56:14.152Z,32.15
2019-03-24T22:58:40.468Z,31.82
2019-03-24T23:01:06.777Z,30.77
2019-03-24T23:03:34.908Z,32.58
2019-03-24T23:06:01.192Z,29.23
2019-03-24T23:08:27.439Z,30.55
2019-03-24T23:10:53.741Z,31.25
2019-03-24T23:13:19.851Z,31.93
2019-03-24T23:15:46.083Z,32.55
2019-03-24T23:18:12.197Z,32.95
2019-03-24T23:20:38.426Z,32.05
2019-03-24T23:23:04.590Z,30.45
2019-03-24T23:25:30.763Z,31.45
2019-03-24T23:27:57.260Z,32.03
2019-03-24T23:30:23.438Z,31.20
2019-03-24T23:32:49.792Z,29.85
2019-03-24T23:35:16.061Z,31.37
2019-03-24T23:37:42.247Z,28.40
2019-03-24T23:40:08.793Z,28.55
2019-03-24T23:42:35.024Z,27.90
2019-03-24T23:45:01.134Z,28.12
2019-03-24T23:47:27.315Z,29.75
2019-03-24T23:49:53.473Z,30.40
2019-03-24T23:52:19.672Z,30.48
2019-03-24T23:54:45.919Z,30.68
2019-03-24T23:57:12.100Z,30.55
2019-03-24T23:59:38.331Z,30.17
